Von Ormy, Texas
Current Conditions -  °F | °C
As of 10:58 AM on Friday 28 Nov 2014 (Local Time) from KSKF Reporting Station
Clear Clear  
Wind Chill: 64°   Ceiling: Unl
Heat Index: 64°   Visibility: 10mi
Dew Point: 53°   Wind: 9mph
Humidity: 67%   Direction: 200°SSW
Pressure: 30.29"   Gusts: NA
Location:  29.29°N, 98.64°W
Report Text: KSKF 281658Z AUTO 20008KT 10SM CLR 18/12 A3029 RMK AO2 SLP257 T01760115 $
Loading
Personal Weather Stations






























Interactive Weather Map New forecast layout! Learn more

10-Day Weather Forecast

Advertisements
Track Severe Weather on mobile